Time;durP1;ratioP1;P1;durP2;ratioP2;P2;SDS_P1;SDS_P2;PMS_P1;PMS_P2;Temp;Humidity;BMP_temperature;BMP_pressure;BME280_temperature;BME280_humidity;BME280_pressure;Samples;Min_cycle;Max_cycle;Signal;HPM_P1;HPM_P2
2022/09/02 00:01:01;;;;;;;0.20;0.10;;;;;;;;;;4147388;28;20058;-46
2022/09/02 00:03:03;;;;;;;0.28;0.10;;;;;;;;;;4146689;28;20457;-50
2022/09/02 00:05:05;;;;;;;0.43;0.15;;;;;;;;;;4147376;28;20131;-49
2022/09/02 00:07:06;;;;;;;0.20;0.10;;;;;;;;;;4147190;28;20057;-45
2022/09/02 00:09:09;;;;;;;0.17;0.00;;;;;;;;;;4147376;28;20061;-46
2022/09/02 00:11:17;;;;;;;0.10;0.03;;;;;;;;;;4147243;28;20486;-48
2022/09/02 00:13:19;;;;;;;0.05;0.05;;;;;;;;;;4146067;28;20089;-48
2022/09/02 00:15:20;;;;;;;0.13;0.10;;;;;;;;;;4131078;28;20065;-49
2022/09/02 00:17:21;;;;;;;0.32;0.17;;;;;;;;;;4130430;28;20058;-50
2022/09/02 00:19:24;;;;;;;0.57;0.05;;;;;;;;;;4134223;28;20060;-48
2022/09/02 00:21:25;;;;;;;0.20;0.20;;;;;;;;;;4147230;28;20501;-48
2022/09/02 00:23:27;;;;;;;0.00;0.00;;;;;;;;;;4145770;28;20065;-48
2022/09/02 00:25:28;;;;;;;0.35;0.10;;;;;;;;;;4147113;28;20058;-48
2022/09/02 00:27:29;;;;;;;0.43;0.20;;;;;;;;;;4147220;28;20049;-48
2022/09/02 00:29:30;;;;;;;0.10;0.10;;;;;;;;;;4147059;28;20054;-52
2022/09/02 00:31:32;;;;;;;0.10;0.10;;;;;;;;;;4147005;28;20100;-50
2022/09/02 00:33:34;;;;;;;0.00;0.00;;;;;;;;;;4146502;28;20119;-46
2022/09/02 00:35:36;;;;;;;0.17;0.03;;;;;;;;;;4146953;28;20563;-47
2022/09/02 00:37:37;;;;;;;0.30;0.10;;;;;;;;;;4146594;28;20046;-52
2022/09/02 00:39:39;;;;;;;0.10;0.10;;;;;;;;;;4146846;28;20449;-51
2022/09/02 00:41:41;;;;;;;0.25;0.10;;;;;;;;;;4145459;28;20108;-49
2022/09/02 00:43:53;;;;;;;0.10;0.10;;;;;;;;;;4144488;28;20607;-48
2022/09/02 00:45:54;;;;;;;0.10;0.10;;;;;;;;;;4145467;28;20481;-50
2022/09/02 00:47:55;;;;;;;0.00;0.00;;;;;;;;;;4145043;28;20440;-52
2022/09/02 00:49:57;;;;;;;0.47;0.10;;;;;;;;;;4146670;28;20572;-52
2022/09/02 00:52:04;;;;;;;0.10;0.10;;;;;;;;;;4146875;28;20054;-49
2022/09/02 00:54:06;;;;;;;0.20;0.10;;;;;;;;;;4145446;28;20054;-48
2022/09/02 00:56:11;;;;;;;0.08;0.08;;;;;;;;;;4146871;28;20108;-51
2022/09/02 00:58:16;;;;;;;0.00;0.00;;;;;;;;;;4146517;28;20208;-48
2022/09/02 01:00:23;;;;;;;0.20;0.10;;;;;;;;;;4145244;28;20103;-48
2022/09/02 01:02:27;;;;;;;0.08;0.08;;;;;;;;;;4145947;28;20644;-45
2022/09/02 01:04:28;;;;;;;0.20;0.10;;;;;;;;;;4144935;28;20428;-48
2022/09/02 01:06:31;;;;;;;0.10;0.00;;;;;;;;;;4130206;28;20073;-48
2022/09/02 01:08:34;;;;;;;0.25;0.10;;;;;;;;;;4130271;28;20054;-47
2022/09/02 01:10:36;;;;;;;0.00;0.00;;;;;;;;;;4145328;28;20054;-48
2022/09/02 01:12:38;;;;;;;0.08;0.08;;;;;;;;;;4129979;28;20050;-49
2022/09/02 01:14:39;;;;;;;0.00;0.00;;;;;;;;;;4130266;28;20062;-45
2022/09/02 01:16:43;;;;;;;0.00;0.00;;;;;;;;;;4129566;28;20050;-50
2022/09/02 01:18:57;;;;;;;0.35;0.15;;;;;;;;;;4126286;28;20085;-48
2022/09/02 01:20:59;;;;;;;1.75;0.03;;;;;;;;;;4127018;28;20062;-48
2022/09/02 01:23:01;;;;;;;0.10;0.05;;;;;;;;;;4128336;28;20055;-48
2022/09/02 01:25:06;;;;;;;0.00;0.00;;;;;;;;;;4128222;28;20190;-46
2022/09/02 01:27:08;;;;;;;0.00;0.00;;;;;;;;;;4128101;28;20102;-48
2022/09/02 01:29:09;;;;;;;0.10;0.10;;;;;;;;;;4127994;28;20481;-48
2022/09/02 01:31:11;;;;;;;0.10;0.08;;;;;;;;;;4142952;28;20065;-47
2022/09/02 01:33:13;;;;;;;0.10;0.10;;;;;;;;;;4142502;28;20104;-45
2022/09/02 01:35:15;;;;;;;0.30;0.13;;;;;;;;;;4142815;28;20065;-47
2022/09/02 01:37:17;;;;;;;0.00;0.00;;;;;;;;;;4128111;28;20097;-48
2022/09/02 01:39:18;;;;;;;0.10;0.10;;;;;;;;;;4128278;28;20121;-46
2022/09/02 01:41:20;;;;;;;0.03;0.00;;;;;;;;;;4127993;28;20069;-45
2022/09/02 01:43:24;;;;;;;0.10;0.08;;;;;;;;;;4130444;28;20058;-47
2022/09/02 01:45:25;;;;;;;0.32;0.10;;;;;;;;;;4143294;28;20053;-45
2022/09/02 01:47:27;;;;;;;0.40;0.20;;;;;;;;;;4126538;28;20126;-47
2022/09/02 01:49:28;;;;;;;0.00;0.00;;;;;;;;;;4142751;28;20505;-47
2022/09/02 01:51:30;;;;;;;0.00;0.00;;;;;;;;;;4144415;28;20061;-46
2022/09/02 01:53:32;;;;;;;0.00;0.00;;;;;;;;;;4142433;28;20057;-49
2022/09/02 01:55:34;;;;;;;0.00;0.00;;;;;;;;;;4129217;28;20501;-47
2022/09/02 01:57:35;;;;;;;0.10;0.10;;;;;;;;;;4146184;28;20062;-46
2022/09/02 01:59:39;;;;;;;0.10;0.10;;;;;;;;;;4145954;28;20108;-47
2022/09/02 02:01:40;;;;;;;0.00;0.00;;;;;;;;;;4147047;28;20060;-49
2022/09/02 02:03:41;;;;;;;0.10;0.10;;;;;;;;;;4145455;28;20577;-47
2022/09/02 02:05:43;;;;;;;0.10;0.10;;;;;;;;;;4145803;28;20135;-42
2022/09/02 02:07:49;;;;;;;0.00;0.00;;;;;;;;;;4147171;28;20108;-44
2022/09/02 02:09:50;;;;;;;0.15;0.10;;;;;;;;;;4146130;28;20092;-48
2022/09/02 02:11:52;;;;;;;0.08;0.08;;;;;;;;;;4147142;28;20440;-47
2022/09/02 02:13:53;;;;;;;0.10;0.10;;;;;;;;;;4129874;28;20132;-45
2022/09/02 02:15:55;;;;;;;0.03;0.00;;;;;;;;;;4147215;28;20128;-49
2022/09/02 02:17:57;;;;;;;0.00;0.00;;;;;;;;;;4146230;28;20096;-46
2022/09/02 02:19:58;;;;;;;0.00;0.00;;;;;;;;;;4147312;28;20054;-44
2022/09/02 02:22:00;;;;;;;0.17;0.10;;;;;;;;;;4147347;28;20062;-47
2022/09/02 02:24:02;;;;;;;0.10;0.10;;;;;;;;;;4129625;28;20058;-47
2022/09/02 02:26:03;;;;;;;0.10;0.10;;;;;;;;;;4145659;28;20136;-43
2022/09/02 02:28:04;;;;;;;0.10;0.10;;;;;;;;;;4146931;28;20045;-43
2022/09/02 02:30:07;;;;;;;0.00;0.00;;;;;;;;;;4129212;28;20074;-50
2022/09/02 02:32:09;;;;;;;0.08;0.00;;;;;;;;;;4145087;28;20057;-47
2022/09/02 02:34:11;;;;;;;0.00;0.00;;;;;;;;;;4145516;28;20545;-48
2022/09/02 02:36:13;;;;;;;0.13;0.10;;;;;;;;;;4146792;28;20058;-44
2022/09/02 02:38:14;;;;;;;0.10;0.10;;;;;;;;;;4129127;28;20109;-48
2022/09/02 02:40:20;;;;;;;0.15;0.10;;;;;;;;;;4162030;28;20064;-49
2022/09/02 02:42:22;;;;;;;0.20;0.10;;;;;;;;;;4145337;28;20050;-46
2022/09/02 02:44:24;;;;;;;0.10;0.10;;;;;;;;;;4145505;28;20573;-49
2022/09/02 02:46:25;;;;;;;0.03;0.00;;;;;;;;;;4145325;28;20085;-45
2022/09/02 02:48:26;;;;;;;0.00;0.00;;;;;;;;;;4144359;28;20120;-48
2022/09/02 02:50:28;;;;;;;0.03;0.03;;;;;;;;;;4148729;28;20108;-47
2022/09/02 02:52:29;;;;;;;0.22;0.10;;;;;;;;;;4147399;28;20061;-51
2022/09/02 02:54:31;;;;;;;0.85;0.20;;;;;;;;;;4147313;28;20519;-48
2022/09/02 02:56:34;;;;;;;0.10;0.10;;;;;;;;;;4147295;28;20508;-47
2022/09/02 02:58:37;;;;;;;0.20;0.10;;;;;;;;;;4146954;28;20085;-46
2022/09/02 03:00:40;;;;;;;0.03;0.03;;;;;;;;;;4131173;28;20058;-48
2022/09/02 03:02:41;;;;;;;0.13;0.10;;;;;;;;;;4146461;28;20058;-49
2022/09/02 03:04:43;;;;;;;0.10;0.10;;;;;;;;;;4130850;28;20058;-47
2022/09/02 03:06:46;;;;;;;0.10;0.10;;;;;;;;;;4146343;28;20571;-48
2022/09/02 03:08:48;;;;;;;0.10;0.10;;;;;;;;;;4146392;28;20426;-46
2022/09/02 03:10:54;;;;;;;0.10;0.10;;;;;;;;;;4146645;28;20107;-48
2022/09/02 03:12:59;;;;;;;0.10;0.10;;;;;;;;;;4146606;28;20155;-48
2022/09/02 03:15:00;;;;;;;0.05;0.00;;;;;;;;;;4148274;28;20123;-50
2022/09/02 03:17:03;;;;;;;0.40;0.10;;;;;;;;;;4146601;28;20069;-44
2022/09/02 03:19:05;;;;;;;0.10;0.10;;;;;;;;;;4146715;28;20414;-45
2022/09/02 03:21:07;;;;;;;0.03;0.03;;;;;;;;;;4130714;28;20486;-52
2022/09/02 03:23:10;;;;;;;0.30;0.10;;;;;;;;;;4146836;28;20088;-47
2022/09/02 03:25:14;;;;;;;0.05;0.05;;;;;;;;;;4147129;28;20058;-46
2022/09/02 03:27:15;;;;;;;0.00;0.00;;;;;;;;;;4146671;28;20054;-48
2022/09/02 03:29:17;;;;;;;0.00;0.00;;;;;;;;;;4146747;28;20054;-48
2022/09/02 03:31:20;;;;;;;0.17;0.10;;;;;;;;;;4146643;28;20409;-52
2022/09/02 03:33:21;;;;;;;0.10;0.00;;;;;;;;;;4147398;28;20061;-48
2022/09/02 03:35:23;;;;;;;0.10;0.10;;;;;;;;;;4148181;28;20062;-44
2022/09/02 03:37:24;;;;;;;0.05;0.05;;;;;;;;;;4147998;28;20060;-47
2022/09/02 03:39:25;;;;;;;0.00;0.00;;;;;;;;;;4146517;28;20116;-47
2022/09/02 03:41:27;;;;;;;0.00;0.00;;;;;;;;;;4146424;28;20062;-49
2022/09/02 03:43:29;;;;;;;0.10;0.00;;;;;;;;;;4147699;28;20077;-50
2022/09/02 03:45:31;;;;;;;0.05;0.05;;;;;;;;;;4146397;28;20057;-47
2022/09/02 03:47:42;;;;;;;0.25;0.10;;;;;;;;;;4145967;28;20506;-46
2022/09/02 03:49:44;;;;;;;0.00;0.00;;;;;;;;;;4146896;28;20085;-47
2022/09/02 03:51:46;;;;;;;0.00;0.00;;;;;;;;;;4146660;28;20062;-46
2022/09/02 03:53:48;;;;;;;0.08;0.08;;;;;;;;;;4147862;28;20065;-47
2022/09/02 03:55:49;;;;;;;0.32;0.17;;;;;;;;;;4147555;28;20453;-47
2022/09/02 03:57:51;;;;;;;0.00;0.00;;;;;;;;;;4146235;28;20050;-47
2022/09/02 03:59:52;;;;;;;0.10;0.10;;;;;;;;;;4146425;28;20062;-51
2022/09/02 04:01:54;;;;;;;0.00;0.00;;;;;;;;;;4147309;28;20057;-45
2022/09/02 04:03:56;;;;;;;0.10;0.10;;;;;;;;;;4145992;28;20073;-47
2022/09/02 04:05:57;;;;;;;0.10;0.10;;;;;;;;;;4147445;28;20116;-49
2022/09/02 04:08:01;;;;;;;0.10;0.05;;;;;;;;;;4146020;28;20555;-48
2022/09/02 04:10:03;;;;;;;0.13;0.10;;;;;;;;;;4146054;28;20058;-46
2022/09/02 04:12:05;;;;;;;0.10;0.10;;;;;;;;;;4146763;28;20184;-45
2022/09/02 04:14:08;;;;;;;0.10;0.10;;;;;;;;;;4145637;28;20076;-48
2022/09/02 04:16:12;;;;;;;0.10;0.10;;;;;;;;;;4146198;28;20080;-47
2022/09/02 04:18:17;;;;;;;0.10;0.00;;;;;;;;;;4145133;28;20050;-45
2022/09/02 04:20:18;;;;;;;0.10;0.10;;;;;;;;;;4147346;28;20057;-46
2022/09/02 04:22:19;;;;;;;0.22;0.20;;;;;;;;;;4147164;28;20536;-48
2022/09/02 04:24:21;;;;;;;0.10;0.10;;;;;;;;;;4145771;28;20442;-47
2022/09/02 04:26:24;;;;;;;0.10;0.10;;;;;;;;;;4146069;28;20088;-45
2022/09/02 04:28:28;;;;;;;0.20;0.10;;;;;;;;;;4162035;28;20049;-47
2022/09/02 04:30:30;;;;;;;0.00;0.00;;;;;;;;;;4145793;28;20057;-48
2022/09/02 04:32:31;;;;;;;0.17;0.10;;;;;;;;;;4146501;28;20061;-47
2022/09/02 04:34:33;;;;;;;0.25;0.10;;;;;;;;;;4145924;28;20058;-44
2022/09/02 04:36:35;;;;;;;0.10;0.10;;;;;;;;;;4146040;28;20065;-47
2022/09/02 04:38:41;;;;;;;0.10;0.10;;;;;;;;;;4129811;28;20100;-49
2022/09/02 04:40:45;;;;;;;0.08;0.08;;;;;;;;;;4146938;28;20054;-45
2022/09/02 04:42:46;;;;;;;0.17;0.15;;;;;;;;;;4145403;28;20057;-47
2022/09/02 04:44:48;;;;;;;0.00;0.00;;;;;;;;;;4147001;28;20105;-47
2022/09/02 04:46:50;;;;;;;0.10;0.10;;;;;;;;;;4129452;28;20061;-48
2022/09/02 04:48:54;;;;;;;0.00;0.00;;;;;;;;;;4129560;28;20054;-46
2022/09/02 04:50:55;;;;;;;0.13;0.10;;;;;;;;;;4145422;28;20089;-47
2022/09/02 04:52:58;;;;;;;0.10;0.10;;;;;;;;;;4129013;28;20129;-47
2022/09/02 04:55:00;;;;;;;0.00;0.00;;;;;;;;;;4146963;28;20053;-49
2022/09/02 04:57:02;;;;;;;0.10;0.10;;;;;;;;;;4145171;28;20050;-48
2022/09/02 04:59:04;;;;;;;0.08;0.08;;;;;;;;;;4145372;28;20053;-49
2022/09/02 05:01:08;;;;;;;0.00;0.00;;;;;;;;;;4126343;28;20058;-47
2022/09/02 05:03:10;;;;;;;0.10;0.05;;;;;;;;;;4126542;28;20055;-45
2022/09/02 05:05:12;;;;;;;0.03;0.03;;;;;;;;;;4143044;28;20112;-45
2022/09/02 05:07:14;;;;;;;0.20;0.13;;;;;;;;;;4143151;28;20069;-46
2022/09/02 05:09:20;;;;;;;0.10;0.10;;;;;;;;;;4143360;28;20058;-45
2022/09/02 05:11:28;;;;;;;0.28;0.10;;;;;;;;;;4143167;28;20513;-47
2022/09/02 05:13:30;;;;;;;0.20;0.10;;;;;;;;;;4142920;28;20104;-46
2022/09/02 05:15:39;;;;;;;0.10;0.10;;;;;;;;;;4143137;28;20104;-46
2022/09/02 05:17:40;;;;;;;0.20;0.10;;;;;;;;;;4142825;28;20081;-47
2022/09/02 05:19:42;;;;;;;0.05;0.05;;;;;;;;;;4127325;28;20054;-44
2022/09/02 05:21:45;;;;;;;0.10;0.08;;;;;;;;;;4126695;28;20062;-45
2022/09/02 05:23:53;;;;;;;0.20;0.10;;;;;;;;;;4142988;28;20061;-45
2022/09/02 05:25:56;;;;;;;0.10;0.10;;;;;;;;;;4142522;28;20081;-45
2022/09/02 05:27:58;;;;;;;0.10;0.10;;;;;;;;;;4142769;28;20054;-49
2022/09/02 05:29:59;;;;;;;0.10;0.10;;;;;;;;;;4142407;28;20060;-48
2022/09/02 05:32:00;;;;;;;0.10;0.10;;;;;;;;;;4142900;28;20065;-45
2022/09/02 05:34:03;;;;;;;0.10;0.10;;;;;;;;;;4158769;28;20107;-44
2022/09/02 05:36:05;;;;;;;0.28;0.20;;;;;;;;;;4142978;28;20057;-41
2022/09/02 05:38:07;;;;;;;0.35;0.10;;;;;;;;;;4126657;28;20519;-49
2022/09/02 05:40:11;;;;;;;0.10;0.10;;;;;;;;;;4126798;28;20414;-46
2022/09/02 05:42:12;;;;;;;0.00;0.00;;;;;;;;;;4143161;28;20061;-47
2022/09/02 05:44:14;;;;;;;0.00;0.00;;;;;;;;;;4142979;28;20053;-49
2022/09/02 05:46:17;;;;;;;0.13;0.10;;;;;;;;;;4142858;28;20540;-45
2022/09/02 05:50:40;;;;;;;0.00;0.00;;;;;;;;;;4142787;28;20104;-47
2022/09/02 05:52:41;;;;;;;0.00;0.00;;;;;;;;;;4142632;28;20489;-48
2022/09/02 05:54:43;;;;;;;0.30;0.10;;;;;;;;;;4142534;28;20065;-46
2022/09/02 05:56:51;;;;;;;0.10;0.10;;;;;;;;;;4142767;28;20147;-48
2022/09/02 05:58:56;;;;;;;0.20;0.10;;;;;;;;;;4126634;28;20058;-47
2022/09/02 06:00:57;;;;;;;0.13;0.05;;;;;;;;;;4142536;28;20062;-45
2022/09/02 06:02:58;;;;;;;0.15;0.15;;;;;;;;;;4142514;28;20065;-47
2022/09/02 06:05:10;;;;;;;0.10;0.10;;;;;;;;;;4127679;28;20587;-47
2022/09/02 06:07:15;;;;;;;0.10;0.10;;;;;;;;;;4142565;28;20088;-47
2022/09/02 06:09:21;;;;;;;0.28;0.17;;;;;;;;;;4153910;28;20061;-44
2022/09/02 06:11:24;;;;;;;0.20;0.10;;;;;;;;;;4155906;28;20140;-46
2022/09/02 06:13:27;;;;;;;0.10;0.10;;;;;;;;;;4141639;28;20452;-47
2022/09/02 06:15:29;;;;;;;0.30;0.10;;;;;;;;;;4142027;28;20176;-44
2022/09/02 06:17:31;;;;;;;0.20;0.10;;;;;;;;;;4140622;28;20053;-45
2022/09/02 06:19:35;;;;;;;0.20;0.13;;;;;;;;;;4141914;28;20058;-46
2022/09/02 06:21:38;;;;;;;0.10;0.10;;;;;;;;;;4141530;28;20107;-45
2022/09/02 06:23:39;;;;;;;0.30;0.20;;;;;;;;;;4141941;28;20058;-44
2022/09/02 06:25:44;;;;;;;0.80;0.20;;;;;;;;;;4158809;28;20061;-43
2022/09/02 06:27:46;;;;;;;0.13;0.10;;;;;;;;;;4142894;28;20084;-46
2022/09/02 06:29:48;;;;;;;0.40;0.30;;;;;;;;;;4134849;28;20058;-47
2022/09/02 06:31:53;;;;;;;1.45;0.20;;;;;;;;;;4141293;28;20062;-44
2022/09/02 06:33:57;;;;;;;0.38;0.20;;;;;;;;;;4146309;28;20061;-44
2022/09/02 06:35:59;;;;;;;0.20;0.20;;;;;;;;;;4136179;28;20164;-45
2022/09/02 06:38:00;;;;;;;0.65;0.30;;;;;;;;;;4132621;28;20116;-45
2022/09/02 06:40:02;;;;;;;0.35;0.20;;;;;;;;;;4136079;28;20061;-48
2022/09/02 06:42:05;;;;;;;1.08;0.30;;;;;;;;;;4121912;28;20101;-44
2022/09/02 06:44:20;;;;;;;1.00;0.30;;;;;;;;;;4156813;28;20578;-47
2022/09/02 06:46:27;;;;;;;0.40;0.30;;;;;;;;;;4139970;28;20066;-49
2022/09/02 06:48:31;;;;;;;0.47;0.30;;;;;;;;;;4139837;28;20516;-45
2022/09/02 06:50:33;;;;;;;0.20;0.20;;;;;;;;;;4143326;28;20058;-47
2022/09/02 06:52:34;;;;;;;1.33;0.20;;;;;;;;;;4142755;28;20058;-46
2022/09/02 06:54:35;;;;;;;0.95;0.40;;;;;;;;;;4142574;28;20053;-46
2022/09/02 06:56:44;;;;;;;0.60;0.30;;;;;;;;;;4134403;28;20080;-46
2022/09/02 06:58:46;;;;;;;0.63;0.30;;;;;;;;;;4141985;28;20510;-44
2022/09/02 07:00:48;;;;;;;0.43;0.28;;;;;;;;;;4139769;28;20045;-46
2022/09/02 07:05:08;;;;;;;0.20;0.20;;;;;;;;;;4141916;28;20100;-45
2022/09/02 07:05:14;;;;;;;0.20;0.20;;;;;;;;;;4142191;28;20058;-44
2022/09/02 07:07:17;;;;;;;1.75;0.30;;;;;;;;;;4149656;28;20072;-44
2022/09/02 07:09:29;;;;;;;0.98;0.28;;;;;;;;;;4152076;28;20140;-47
2022/09/02 07:11:35;;;;;;;0.82;0.32;;;;;;;;;;4136180;28;20100;-45
2022/09/02 07:13:37;;;;;;;0.68;0.22;;;;;;;;;;4136381;28;20132;-44
2022/09/02 07:15:40;;;;;;;0.43;0.30;;;;;;;;;;4133299;28;20054;-45
2022/09/02 07:17:41;;;;;;;0.35;0.20;;;;;;;;;;4134807;28;20057;-44
2022/09/02 07:19:47;;;;;;;0.65;0.52;;;;;;;;;;4141051;28;20386;-47
2022/09/02 07:21:49;;;;;;;1.65;0.30;;;;;;;;;;4158472;28;20111;-45
2022/09/02 07:23:50;;;;;;;0.20;0.15;;;;;;;;;;4140943;28;20050;-45
2022/09/02 07:25:54;;;;;;;0.57;0.32;;;;;;;;;;4140442;28;20100;-48
2022/09/02 07:27:56;;;;;;;1.05;0.20;;;;;;;;;;4141912;28;20049;-47
2022/09/02 07:29:59;;;;;;;0.20;0.20;;;;;;;;;;4138516;28;20518;-46
2022/09/02 07:32:01;;;;;;;0.47;0.20;;;;;;;;;;4142222;28;20112;-44
2022/09/02 07:34:04;;;;;;;0.30;0.13;;;;;;;;;;4124565;28;20066;-44
2022/09/02 07:36:06;;;;;;;0.77;0.30;;;;;;;;;;4135657;28;20057;-47
2022/09/02 07:38:10;;;;;;;0.15;0.10;;;;;;;;;;4152368;28;20053;-45
2022/09/02 07:40:14;;;;;;;0.55;0.30;;;;;;;;;;4140732;28;20053;-44
2022/09/02 07:42:16;;;;;;;0.47;0.20;;;;;;;;;;4156717;28;20168;-45
2022/09/02 07:44:19;;;;;;;0.30;0.20;;;;;;;;;;4156365;28;20064;-45
2022/09/02 07:46:20;;;;;;;0.40;0.20;;;;;;;;;;4133046;28;20085;-44
2022/09/02 07:48:23;;;;;;;0.82;0.30;;;;;;;;;;4145260;28;20112;-43
2022/09/02 07:50:25;;;;;;;1.60;0.30;;;;;;;;;;4137487;28;20623;-45
2022/09/02 07:52:27;;;;;;;0.20;0.10;;;;;;;;;;4139016;28;20057;-47
2022/09/02 07:54:31;;;;;;;1.05;0.30;;;;;;;;;;4149603;28;20061;-47
2022/09/02 07:56:33;;;;;;;0.20;0.20;;;;;;;;;;4136526;28;20085;-44
2022/09/02 07:58:34;;;;;;;0.13;0.10;;;;;;;;;;4136636;28;20199;-47
2022/09/02 08:00:38;;;;;;;1.10;0.28;;;;;;;;;;4136837;28;20058;-43
2022/09/02 08:02:43;;;;;;;0.55;0.20;;;;;;;;;;4131774;28;20100;-45
2022/09/02 08:04:50;;;;;;;0.45;0.20;;;;;;;;;;4133971;28;20060;-48
2022/09/02 08:06:52;;;;;;;1.30;0.20;;;;;;;;;;4133327;28;20108;-42
2022/09/02 08:08:54;;;;;;;0.10;0.10;;;;;;;;;;4131619;28;20057;-43
2022/09/02 08:10:56;;;;;;;0.30;0.20;;;;;;;;;;4135171;28;20053;-43
2022/09/02 08:13:01;;;;;;;0.32;0.10;;;;;;;;;;4135563;28;20107;-46
2022/09/02 08:15:03;;;;;;;0.85;0.10;;;;;;;;;;4138220;28;20060;-43
2022/09/02 08:17:04;;;;;;;0.45;0.17;;;;;;;;;;4134147;28;20521;-43
2022/09/02 08:19:07;;;;;;;0.20;0.10;;;;;;;;;;4134848;28;20107;-43
2022/09/02 08:21:08;;;;;;;0.10;0.10;;;;;;;;;;4135127;28;20065;-47
2022/09/02 08:23:10;;;;;;;0.38;0.17;;;;;;;;;;4136426;28;20505;-45
2022/09/02 08:25:11;;;;;;;0.30;0.30;;;;;;;;;;4137168;28;20556;-47
2022/09/02 08:27:13;;;;;;;0.20;0.20;;;;;;;;;;4135464;28;20116;-45
2022/09/02 08:29:14;;;;;;;0.25;0.10;;;;;;;;;;4151194;28;20580;-47
2022/09/02 08:31:15;;;;;;;0.20;0.10;;;;;;;;;;4135465;28;20057;-46
2022/09/02 08:33:17;;;;;;;0.00;0.00;;;;;;;;;;4139785;28;20104;-47
2022/09/02 08:35:18;;;;;;;1.23;0.40;;;;;;;;;;4138733;28;20058;-44
2022/09/02 08:37:19;;;;;;;1.17;0.10;;;;;;;;;;4135133;28;20502;-44
2022/09/02 08:39:20;;;;;;;0.10;0.10;;;;;;;;;;4134952;28;20057;-45
2022/09/02 08:41:25;;;;;;;0.28;0.10;;;;;;;;;;4138429;28;20122;-45
2022/09/02 08:43:37;;;;;;;0.35;0.20;;;;;;;;;;4136432;28;20108;-45
2022/09/02 08:45:38;;;;;;;0.17;0.17;;;;;;;;;;4137377;28;20163;-46
2022/09/02 08:47:42;;;;;;;1.65;0.20;;;;;;;;;;4139236;28;20050;-46
2022/09/02 08:49:48;;;;;;;0.10;0.10;;;;;;;;;;4152993;28;20061;-44
2022/09/02 08:51:56;;;;;;;0.10;0.10;;;;;;;;;;4135601;28;20054;-47
2022/09/02 08:54:17;;;;;;;0.35;0.20;;;;;;;;;;4133396;28;20189;-41
2022/09/02 08:56:18;;;;;;;0.15;0.15;;;;;;;;;;4139994;28;20054;-44
2022/09/02 08:58:23;;;;;;;0.20;0.20;;;;;;;;;;4135121;28;20046;-43
2022/09/02 09:00:24;;;;;;;0.10;0.10;;;;;;;;;;4134583;28;20069;-47
2022/09/02 09:02:52;;;;;;;0.20;0.20;;;;;;;;;;4128106;28;20129;-42
2022/09/02 09:05:30;;;;;;;0.65;0.25;;;;;;;;;;4126569;28;20054;-44
2022/09/02 09:07:54;;;;;;;0.13;0.13;;;;;;;;;;4136627;28;20053;-44
2022/09/02 09:10:11;;;;;;;0.20;0.10;;;;;;;;;;4139196;28;20071;-45
2022/09/02 09:12:21;;;;;;;0.10;0.10;;;;;;;;;;4117932;28;20470;-47
2022/09/02 09:14:38;;;;;;;0.32;0.20;;;;;;;;;;4151578;28;20082;-43
2022/09/02 09:16:53;;;;;;;0.13;0.10;;;;;;;;;;4136806;28;20061;-48
2022/09/02 09:19:16;;;;;;;1.95;0.20;;;;;;;;;;4134309;28;20104;-43
2022/09/02 09:21:17;;;;;;;0.38;0.20;;;;;;;;;;4135420;28;20521;-47
2022/09/02 09:23:24;;;;;;;0.35;0.20;;;;;;;;;;4136833;28;20119;-46
2022/09/02 09:25:30;;;;;;;0.63;0.30;;;;;;;;;;4133830;28;20058;-45
2022/09/02 09:27:32;;;;;;;0.73;0.20;;;;;;;;;;4139284;28;20057;-45
2022/09/02 09:29:35;;;;;;;0.45;0.40;;;;;;;;;;4129470;28;20076;-44
2022/09/02 09:31:38;;;;;;;0.35;0.20;;;;;;;;;;4137498;28;20524;-47
2022/09/02 09:33:40;;;;;;;1.00;0.20;;;;;;;;;;4140210;28;20108;-45
2022/09/02 09:35:50;;;;;;;0.35;0.20;;;;;;;;;;4136246;28;20468;-45
2022/09/02 09:37:53;;;;;;;0.20;0.20;;;;;;;;;;4141267;28;20058;-47
2022/09/02 09:39:54;;;;;;;0.95;0.30;;;;;;;;;;4133409;28;20510;-45
2022/09/02 09:42:02;;;;;;;1.98;0.30;;;;;;;;;;4138227;28;20066;-45
2022/09/02 09:44:06;;;;;;;0.28;0.20;;;;;;;;;;4137432;28;20918;-46
2022/09/02 09:46:25;;;;;;;0.40;0.20;;;;;;;;;;4139927;28;20062;-44
2022/09/02 09:48:28;;;;;;;0.68;0.30;;;;;;;;;;4136751;28;20054;-45
2022/09/02 09:50:29;;;;;;;0.82;0.40;;;;;;;;;;4137454;28;20501;-48
2022/09/02 09:52:30;;;;;;;0.20;0.10;;;;;;;;;;4138310;28;20370;-42
2022/09/02 09:54:32;;;;;;;0.30;0.20;;;;;;;;;;4134863;28;20104;-45
2022/09/02 09:56:33;;;;;;;0.40;0.30;;;;;;;;;;4138136;28;20119;-43
2022/09/02 09:58:45;;;;;;;0.45;0.30;;;;;;;;;;4133960;28;20460;-41
2022/09/02 10:00:46;;;;;;;0.20;0.10;;;;;;;;;;4135420;28;20119;-46
2022/09/02 10:02:50;;;;;;;1.27;0.35;;;;;;;;;;4132278;28;20057;-48
2022/09/02 10:04:54;;;;;;;0.30;0.30;;;;;;;;;;4150133;28;20123;-46
2022/09/02 10:06:56;;;;;;;0.45;0.32;;;;;;;;;;4136454;28;20065;-45
2022/09/02 10:09:17;;;;;;;2.25;0.40;;;;;;;;;;4128469;28;20389;-45
2022/09/02 10:11:25;;;;;;;0.60;0.30;;;;;;;;;;4133327;28;20054;-50
2022/09/02 10:13:29;;;;;;;1.25;0.40;;;;;;;;;;4140912;28;20096;-43
2022/09/02 10:15:39;;;;;;;0.43;0.40;;;;;;;;;;4136871;28;20560;-46
2022/09/02 10:17:51;;;;;;;0.40;0.38;;;;;;;;;;4155593;28;20472;-42
2022/09/02 10:20:16;;;;;;;0.55;0.30;;;;;;;;;;4141293;28;20088;-44
2022/09/02 10:22:46;;;;;;;0.28;0.25;;;;;;;;;;4145195;28;20096;-46
2022/09/02 10:25:20;;;;;;;0.60;0.40;;;;;;;;;;4144810;28;20431;-48
2022/09/02 10:27:33;;;;;;;0.20;0.20;;;;;;;;;;4144348;28;20473;-46
2022/09/02 10:30:00;;;;;;;0.40;0.32;;;;;;;;;;4140638;28;20115;-47
2022/09/02 10:32:10;;;;;;;0.82;0.40;;;;;;;;;;4131445;28;20533;-45
2022/09/02 10:34:47;;;;;;;0.30;0.20;;;;;;;;;;4138987;28;20476;-46
2022/09/02 10:37:07;;;;;;;0.98;0.20;;;;;;;;;;4139437;28;20100;-49
2022/09/02 10:39:28;;;;;;;1.30;0.30;;;;;;;;;;4143255;28;20104;-46
2022/09/02 10:41:48;;;;;;;4.45;0.40;;;;;;;;;;4126268;28;20153;-47
2022/09/02 10:43:52;;;;;;;0.52;0.32;;;;;;;;;;4144771;28;20115;-48
2022/09/02 10:45:58;;;;;;;0.30;0.20;;;;;;;;;;4139257;28;20054;-46
2022/09/02 10:48:03;;;;;;;27.23;3.63;;;;;;;;;;4141656;28;20056;-40
2022/09/02 10:50:25;;;;;;;3.17;0.60;;;;;;;;;;4145271;28;20086;-43
2022/09/02 10:53:01;;;;;;;4.22;0.52;;;;;;;;;;4142478;28;20809;-41
2022/09/02 10:55:13;;;;;;;2.78;0.52;;;;;;;;;;4129068;28;20310;-42
2022/09/02 10:57:18;;;;;;;3.90;0.70;;;;;;;;;;4136168;28;20434;-42
2022/09/02 10:59:38;;;;;;;2.63;0.45;;;;;;;;;;4142103;28;20050;-41
2022/09/02 11:01:47;;;;;;;3.72;0.77;;;;;;;;;;4132777;28;20058;-41
2022/09/02 11:04:03;;;;;;;6.65;0.70;;;;;;;;;;4135922;28;20119;-42
2022/09/02 11:06:12;;;;;;;1.00;0.60;;;;;;;;;;4137132;28;20093;-41
2022/09/02 11:08:38;;;;;;;4.00;0.60;;;;;;;;;;4146677;28;20054;-41
2022/09/02 11:10:55;;;;;;;1.88;0.70;;;;;;;;;;4130374;28;20054;-41
2022/09/02 11:13:20;;;;;;;2.45;0.80;;;;;;;;;;4137725;28;20061;-41
2022/09/02 11:15:38;;;;;;;3.45;0.90;;;;;;;;;;4139704;28;20057;-41
2022/09/02 11:17:58;;;;;;;3.25;0.70;;;;;;;;;;4137882;28;20678;-41
2022/09/02 11:20:29;;;;;;;2.10;1.05;;;;;;;;;;4139952;28;20074;-41
2022/09/02 11:22:42;;;;;;;1.73;0.95;;;;;;;;;;4130753;28;20119;-41
2022/09/02 11:24:59;;;;;;;1.25;0.80;;;;;;;;;;4138850;28;20155;-41
2022/09/02 11:27:15;;;;;;;2.38;0.70;;;;;;;;;;4138527;28;20479;-41
2022/09/02 11:29:40;;;;;;;2.20;0.77;;;;;;;;;;4141840;28;20494;-41
2022/09/02 11:31:44;;;;;;;2.20;0.80;;;;;;;;;;4139483;28;20058;-41
2022/09/02 11:33:55;;;;;;;1.45;0.75;;;;;;;;;;4131091;28;20054;-41
2022/09/02 11:35:57;;;;;;;0.98;0.60;;;;;;;;;;4138819;28;20768;-41
2022/09/02 11:38:05;;;;;;;2.47;0.60;;;;;;;;;;4135292;28;20084;-41
2022/09/02 11:40:12;;;;;;;1.60;0.60;;;;;;;;;;4139465;28;20053;-41
2022/09/02 11:42:14;;;;;;;1.33;0.98;;;;;;;;;;4141332;28;20053;-41
2022/09/02 11:44:55;;;;;;;3.00;0.60;;;;;;;;;;4141362;28;20104;-41
2022/09/02 11:47:19;;;;;;;2.10;0.65;;;;;;;;;;4120617;28;20109;-44
2022/09/02 11:49:50;;;;;;;0.93;0.55;;;;;;;;;;4140789;28;20050;-41
2022/09/02 11:52:04;;;;;;;0.80;0.57;;;;;;;;;;4142860;28;20057;-42
2022/09/02 11:54:07;;;;;;;1.17;0.60;;;;;;;;;;4142712;28;20073;-41
2022/09/02 11:56:17;;;;;;;1.10;0.60;;;;;;;;;;4143050;28;20543;-42
2022/09/02 11:58:35;;;;;;;1.00;0.70;;;;;;;;;;4142417;28;20046;-41
2022/09/02 12:00:59;;;;;;;1.05;0.50;;;;;;;;;;4138422;28;20817;-41
2022/09/02 12:03:11;;;;;;;1.58;0.45;;;;;;;;;;4137668;28;20058;-42
2022/09/02 12:05:28;;;;;;;1.13;0.40;;;;;;;;;;4143051;28;20062;-41
2022/09/02 12:07:46;;;;;;;1.75;0.50;;;;;;;;;;4140663;28;20107;-40
2022/09/02 12:09:48;;;;;;;1.15;0.45;;;;;;;;;;4143183;28;20057;-40
2022/09/02 12:11:50;;;;;;;1.70;0.57;;;;;;;;;;4139941;28;20062;-42
2022/09/02 12:13:52;;;;;;;0.40;0.30;;;;;;;;;;4108521;28;20121;-41
2022/09/02 12:16:11;;;;;;;1.00;0.43;;;;;;;;;;4141263;28;20508;-41
2022/09/02 12:18:29;;;;;;;0.57;0.33;;;;;;;;;;4140783;28;20041;-40
2022/09/02 12:20:41;;;;;;;0.57;0.30;;;;;;;;;;4140414;28;20054;-40
2022/09/02 12:22:42;;;;;;;0.63;0.38;;;;;;;;;;4142314;28;20474;-40
2022/09/02 12:25:00;;;;;;;0.30;0.25;;;;;;;;;;4142951;28;20721;-40
2022/09/02 12:27:06;;;;;;;1.15;0.40;;;;;;;;;;4134325;28;20662;-40
2022/09/02 12:29:23;;;;;;;0.95;0.40;;;;;;;;;;4136195;28;20502;-41
2022/09/02 12:31:41;;;;;;;2.05;0.40;;;;;;;;;;4139231;28;20068;-42
2022/09/02 12:33:44;;;;;;;0.20;0.20;;;;;;;;;;4139408;28;20399;-41
2022/09/02 12:35:45;;;;;;;1.67;0.28;;;;;;;;;;4142051;28;20086;-40